Weather observations for the past three days for
Burbank - Bob Hope Airport
| Date | Time (pdt) | Wind (kph) | Vis. (km) | Weather | Sky Cond. | Temperature (ºC) | Relative Humidity | Wind Chill (°C) | Heat Index (°C) | Pressure | Precipitation (cm) | ||||||
|---|---|---|---|---|---|---|---|---|---|---|---|---|---|---|---|---|---|
| Air | Dwpt | 6 hour | altimeter (cm) | sea level (mb) | 1 hr | 3 hr | 6 hr | ||||||||||
| Max. | Min. | ||||||||||||||||
| 02 | 15:53 | S 15 | 16.09 | Fair | CLR | 23.9 | 13.3 | 52% | 25 | 75.82 | 1009.6 | ||||||
| 02 | 14:53 | S 17 | 16.09 | Fair | CLR | 23.3 | 13.9 | 56% | 75.9 | 1010.8 | |||||||
| 02 | 13:53 | Vrbl 7 | 8.05 | Fair with Haze | CLR | 24.4 | 13.9 | 52% | 26 | 75.95 | 1011.4 | ||||||
| 02 | 12:53 | SE 6 | 8.05 | Fair with Haze | CLR | 21.7 | 13.3 | 59% | 76 | 1012.3 | |||||||
| 02 | 11:53 | SW 9 | 4.83 | Partly Cloudy with Haze | SCT013 | 19.4 | 13.3 | 68% | 76.07 | 1013.3 | |||||||
| 02 | 10:53 | Calm | 4.83 | Mostly Cloudy with Haze | BKN011 | 17.2 | 13.3 | 17.2 | 12.8 | 78% | 76.12 | 1013.9 | |||||
| 02 | 09:53 | S 6 | 3.22 | Fog/Mist | OVC007 | 15 | 12.8 | 87% | 76.15 | 1014.3 | |||||||
| 02 | 08:53 | S 13 | 3.22 | Fog/Mist | OVC008 | 14.4 | 12.2 | 87% | 76.15 | 1014.1 | |||||||
| 02 | 07:53 | Calm | 3.22 | Fog/Mist | OVC006 | 13.9 | 12.8 | 93% | 76.12 | 1013.9 | |||||||
| 02 | 06:53 | Calm | 3.22 | Fog/Mist | OVC005 | 13.3 | 12.8 | 97% | 76.1 | 1013.7 | |||||||
| 02 | 05:53 | S 7 | 3.22 | Fog/Mist | OVC007 | 13.3 | 12.2 | 93% | 76.07 | 1013.1 | |||||||
| 02 | 04:53 | S 6 | 12.87 | Fair | CLR | 13.3 | 11.7 | 15.6 | 13.3 | 90% | 76.05 | 1012.7 | |||||
| 02 | 03:53 | Calm | 16.09 | Fair | CLR | 13.9 | 12.2 | 90% | 76 | 1012.1 | |||||||
| 02 | 02:53 | Calm | 16.09 | Fair | CLR | 14.4 | 12.2 | 87% | 76 | 1012.1 | |||||||
| 02 | 01:53 | Calm | 16.09 | Fair | CLR | 15 | 12.2 | 83% | 76.02 | 1012.5 | |||||||
| 02 | 00:53 | Calm | 16.09 | Fair | CLR | 15 | 12.2 | 83% | 76.07 | 1013.2 | |||||||
| 01 | 23:53 | E 7 | 16.09 | Fair | CLR | 15 | 12.8 | 87% | 76.07 | 1013.2 | |||||||
| 01 | 22:53 | SE 11 | 16.09 | Fair | CLR | 15.6 | 12.8 | 23.3 | 15.6 | 84% | 76.05 | 1013.0 | |||||
| 01 | 21:53 | SE 13 | 16.09 | Fair | CLR | 16.1 | 12.8 | 81% | 76.05 | 1013.0 | |||||||
| 01 | 20:53 | SE 17 G 37 | 16.09 | Fair | CLR | 17.2 | 12.8 | 76% | 75.97 | 1012.0 | |||||||
| 01 | 19:53 | S 11 | 16.09 | Fair | CLR | 18.3 | 12.8 | 70% | 75.92 | 1011.1 | |||||||
| 01 | 18:53 | SW 13 | 16.09 | Fair | CLR | 21.1 | 13.3 | 61% | 75.87 | 1010.6 | |||||||
| 01 | 17:53 | SW 13 | 16.09 | Fair | CLR | 22.8 | 13.3 | 55% | 75.87 | 1010.5 | |||||||
| 01 | 16:53 | S 13 | 16.09 | Fair with Haze | CLR | 23.3 | 13.3 | 25 | 17.8 | 54% | 75.87 | 1010.3 | |||||
| 01 | 15:53 | S 13 | 16.09 | Fair with Haze | CLR | 24.4 | 13.3 | 50% | 26 | 75.87 | 1010.5 | ||||||
| 01 | 14:53 | S 13 G 31 | 9.66 | Fair with Haze | CLR | 24.4 | 12.8 | 48% | 26 | 75.95 | 1011.3 | ||||||
| 01 | 13:53 | Calm | 9.66 | Fair with Haze | CLR | 23.9 | 12.2 | 48% | 25 | 76 | 1012.0 | ||||||
| 01 | 12:53 | Vrbl 6 | 9.66 | Fair with Haze | CLR | 21.7 | 12.2 | 55% | 76.05 | 1012.6 | |||||||
| 01 | 11:53 | Vrbl 7 | 9.66 | Fair with Haze | CLR | 20 | 12.2 | 61% | 76.1 | 1013.6 | |||||||
| 01 | 10:53 | Vrbl 6 | 8.05 | Overcast with Haze | OVC018 | 17.8 | 12.2 | 17.8 | 15 | 70% | 76.15 | 1014.4 | |||||
| 01 | 09:53 | S 6 | 8.05 | Overcast with Haze | OVC017 | 16.7 | 12.2 | 75% | 76.17 | 1014.5 | |||||||
| 01 | 08:53 | E 6 | 12.87 | Overcast with Haze | OVC013 | 15.6 | 12.2 | 80% | 76.15 | 1014.2 | |||||||
| 01 | 07:53 | SE 6 | 8.05 | Overcast with Haze | OVC013 | 15.6 | 12.2 | 80% | 76.12 | 1014.0 | |||||||
| 01 | 06:53 | E 7 | 16.09 | Overcast | OVC013 | 15 | 11.7 | 81% | 76.07 | 1013.4 | |||||||
| 01 | 05:53 | E 6 | 14.48 | Overcast | OVC012 | 15 | 11.7 | 81% | 76.05 | 1012.9 | |||||||
| 01 | 04:53 | E 9 | 14.48 | Overcast | OVC012 | 15 | 11.7 | 15.6 | 14.4 | 81% | 76.02 | 1012.5 | |||||
| 01 | 03:53 | Calm | 16.09 | Overcast | OVC012 | 15 | 12.2 | 83% | 76 | 1012.3 | |||||||
| 01 | 02:53 | Calm | 16.09 | Fair | CLR | 14.4 | 11.1 | 81% | 76 | 1012.3 | |||||||
| 01 | 01:53 | Calm | 16.09 | Partly Cloudy | SCT015 | 15 | 11.7 | 81% | 76.05 | 1012.8 | |||||||
| 01 | 00:53 | W 6 | 16.09 | Fair | CLR | 15 | 12.2 | 83% | 76.05 | 1012.8 | |||||||
| 30 | 23:53 | Calm | 16.09 | Fair | CLR | 15 | 12.2 | 83% | 76.02 | 1012.6 | |||||||
| 30 | 22:53 | SW 7 | 16.09 | Fair | CLR | 15 | 12.2 | 21.7 | 15 | 83% | 76.02 | 1012.5 | |||||
| 30 | 20:53 | S 13 | 16.09 | Fair | CLR | 16.1 | 12.2 | 78% | 75.95 | 1011.6 | |||||||
| 30 | 19:53 | S 13 | 16.09 | Fair | CLR | 17.2 | 11.7 | 70% | 75.87 | 1010.6 | |||||||
| 30 | 18:53 | S 17 | 16.09 | Fair | CLR | 18.9 | 12.8 | 68% | 75.82 | 1009.8 | |||||||
| 30 | 17:53 | S 17 | 16.09 | Fair | CLR | 21.1 | 12.2 | 57% | 75.79 | 1009.6 | |||||||
| 30 | 16:53 | S 15 | 16.09 | Fair | CLR | 21.7 | 12.2 | 23.9 | 18.9 | 55% | 75.79 | 1009.4 | |||||
| 30 | 15:53 | S 17 | 16.09 | Fair | CLR | 22.2 | 11.7 | 52% | 75.79 | 1009.4 | |||||||
| 30 | 14:53 | S 19 | 16.09 | Fair | CLR | 22.8 | 11.7 | 50% | 75.82 | 1009.7 | |||||||
| 30 | 13:53 | S 15 | 9.66 | Fair with Haze | CLR | 22.8 | 11.7 | 50% | 75.84 | 1009.9 | |||||||
| 30 | 12:53 | SE 7 | 9.66 | Fair with Haze | CLR | 22.8 | 10 | 44% | 75.84 | 1010.2 | |||||||
| 30 | 11:53 | SE 11 | 9.66 | Fair with Haze | CLR | 20.6 | 9.4 | 49% | 75.92 | 1011.0 | |||||||
| 30 | 10:53 | E 6 | 9.66 | Fair with Haze | CLR | 18.9 | 10 | 18.9 | 12.8 | 56% | 75.97 | 1011.7 | |||||
| 30 | 09:53 | E 7 | 9.66 | Fair with Haze | CLR | 16.7 | 10 | 65% | 76 | 1012.1 | |||||||
| 30 | 08:53 | S 6 | 9.66 | Mostly Cloudy with Haze | BKN016 | 15 | 10 | 72% | 76.02 | 1012.6 | |||||||
| 30 | 07:53 | Vrbl 9 | 9.66 | Mostly Cloudy with Haze | BKN015 | 14.4 | 10.6 | 78% | 76.02 | 1012.7 | |||||||
| 30 | 06:53 | E 7 | 16.09 | Overcast | OVC014 | 13.9 | 10 | 78% | 76.02 | 1012.5 | |||||||
| 30 | 05:53 | E 6 | 16.09 | Overcast | OVC009 | 13.3 | 11.1 | 87% | 76 | 1012.3 | |||||||
| 30 | 04:53 | Calm | 16.09 | Fair | CLR | 12.8 | 8.9 | 16.1 | 12.8 | 77% | 76 | 1012.2 | |||||
| 30 | 03:53 | Calm | 16.09 | Fair | CLR | 13.3 | 7.8 | 70% | 76.02 | 1012.6 | |||||||
| 30 | 02:53 | N 6 | 16.09 | Fair | CLR | 13.3 | 9.4 | 77% | 76.05 | 1012.9 | |||||||
| 30 | 01:53 | Calm | 16.09 | Fair | CLR | 13.9 | 11.7 | 87% | 76.12 | 1013.8 | |||||||
| 30 | 00:53 | E 9 | 16.09 | Fair | CLR | 15 | 10.6 | 75% | 76.15 | 1014.2 | |||||||
| 29 | 23:53 | E 6 | 16.09 | Fair | CLR | 15.6 | 10.6 | 72% | 76.15 | 1014.2 | |||||||
| 29 | 22:53 | SE 9 | 16.09 | Fair | CLR | 16.1 | 11.1 | 22.2 | 15.6 | 72% | 76.17 | 1014.5 | |||||
| 29 | 21:53 | E 6 | 16.09 | Fair | CLR | 16.7 | 10.6 | 67% | 76.15 | 1014.4 | |||||||
| 29 | 20:53 | SE 13 | 16.09 | Fair | CLR | 16.7 | 9.4 | 62% | 76.15 | 1014.2 | |||||||
| 29 | 19:53 | S 11 | 16.09 | Fair | CLR | 17.8 | 8.9 | 56% | 76.1 | 1013.7 | |||||||
| 29 | 18:53 | S 13 | 16.09 | Fair | CLR | 19.4 | 7.8 | 47% | 76.07 | 1013.3 | |||||||
| 29 | 17:53 | S 15 | 16.09 | Fair | CLR | 21.1 | 7.2 | 41% | 76.07 | 1013.1 | |||||||
| 29 | 16:53 | S 19 | 16.09 | Fair | CLR | 22.2 | 7.2 | 23.9 | 20.6 | 38% | 76.05 | 1013.0 | |||||
| Date | Time (pdt) | Wind (kph) | Vis. (km) | Weather | Sky Cond. | Air | Dwpt | Max. | Min. | Relative Humidity | Wind Chill (°C) | Heat Index (°C) | altimeter (cm) | sea level (mb) | 1 hr | 3 hr | 6 hr |
| 6 hour | |||||||||||||||||
| Temperature (ºC) | Pressure | Precipitation (cm) | |||||||||||||||